Etusivu
METAR-TAF:

METAR-TAF

Lentoasemat :

McMinnville, Oregon, Yhdysvallat

Leveyspiiri: 45-11-46N, Pituuspiiri: 123-07-56W, korkeus merenpinnasta: 48 m

Tämänhetkinen sää

Tämä raportti tehtiin 35 minuuttia sitten, kello 21.53 UTC
tyyntä
Lämpötila 11°C
Kosteus 82%
Ilmanpaine 1025 hPa
Näkyvyys: 16.1 km
Pilvistä 1200 ft:n korkeudessa

METAR: KMMV 162153Z AUTO 00000KT 10SM OVC012 11/08 A3028 RMK AO2 SLP254 T01110083 $

Aika: 14:28 (22:28 UTC)


TAF: puuttuu

Säähavainnot ja -ennusteet yli 4000 lentoasemalta (METAR- ja TAF-raportit).

Käytössä olevat sääasemat on merkitty karttaan keltaisilla ja punaisilla pisteillä.

Aseta hiiri pisteen päälle nähdäksesi sääaseman nimen.

Klikkaa sitten nähdäksesi säähavainnot ja -ennusteet.

Kartan vaihtaminen: klikkaa mustalla rastilla varustettuja vihreitä pisteitä, niin voit zoomata sisään; viivalla varustettua vihreää pistettä, niin voit zoomata ulos tai vihreitä nuolia, niin pääset viereisille kartoille.


METAR-TAF: